Time;durP1;ratioP1;P1;durP2;ratioP2;P2;SDS_P1;SDS_P2;PMS_P1;PMS_P2;Temp;Humidity;BMP_temperature;BMP_pressure;BME280_temperature;BME280_humidity;BME280_pressure;Samples;Min_cycle;Max_cycle;Signal;HPM_P1;HPM_P2
2022/03/15 00:00:07;;;;;;;28.37;21.43;;;8.40;1.00;;;;;;6304198;28;20327;-54
2022/03/15 00:03:10;;;;;;;25.63;20.83;;;8.50;1.00;;;;;;6310306;28;20315;-55
2022/03/15 00:06:13;;;;;;;27.37;22.33;;;8.40;1.00;;;;;;6293508;28;20419;-54
2022/03/15 00:09:16;;;;;;;28.87;22.30;;;8.40;1.00;;;;;;6302339;28;20240;-55
2022/03/15 00:12:20;;;;;;;26.57;20.63;;;8.40;1.00;;;;;;6300021;28;20775;-55
2022/03/15 00:15:24;;;;;;;27.07;21.77;;;8.50;1.00;;;;;;6305519;28;20923;-54
2022/03/15 00:18:29;;;;;;;30.03;22.37;;;8.40;1.00;;;;;;6295791;28;20640;-54
2022/03/15 00:21:32;;;;;;;28.97;21.43;;;8.40;1.00;;;;;;6299567;28;20790;-55
2022/03/15 00:24:35;;;;;;;27.40;20.73;;;8.40;1.00;;;;;;6309376;28;20485;-54
2022/03/15 00:27:39;;;;;;;26.73;20.33;;;8.40;1.00;;;;;;6292508;28;20941;-54
2022/03/15 00:30:42;;;;;;;29.17;21.67;;;8.40;1.00;;;;;;6308902;28;20318;-54
2022/03/15 00:33:45;;;;;;;26.70;20.10;;;8.40;1.00;;;;;;6304242;28;20845;-53
2022/03/15 00:36:48;;;;;;;24.87;20.43;;;8.40;1.00;;;;;;6285571;28;20734;-55
2022/03/15 00:39:51;;;;;;;23.97;20.00;;;8.40;1.00;;;;;;6301730;28;20240;-54
2022/03/15 00:42:55;;;;;;;26.13;19.93;;;8.30;1.00;;;;;;6309369;28;20301;-55
2022/03/15 00:45:58;;;;;;;28.57;21.40;;;8.30;1.00;;;;;;6292586;28;20337;-54
2022/03/15 00:49:01;;;;;;;25.63;21.10;;;8.30;1.00;;;;;;6303199;28;21028;-53
2022/03/15 00:52:04;;;;;;;31.13;21.43;;;8.20;1.00;;;;;;6300462;28;20709;-54
2022/03/15 00:55:08;;;;;;;26.43;20.63;;;8.20;1.00;;;;;;6309023;28;20811;-54
2022/03/15 00:58:12;;;;;;;24.27;19.37;;;8.20;1.00;;;;;;6297320;28;20690;-54
2022/03/15 01:01:15;;;;;;;29.73;21.77;;;8.30;1.00;;;;;;6301647;28;20256;-53
2022/03/15 01:04:18;;;;;;;24.07;20.00;;;8.30;1.00;;;;;;6288792;28;20388;-54
2022/03/15 01:07:21;;;;;;;24.10;20.20;;;8.30;1.00;;;;;;6301757;28;20311;-54
2022/03/15 01:10:24;;;;;;;27.90;20.10;;;8.30;1.00;;;;;;6303930;28;20224;-54
2022/03/15 01:13:29;;;;;;;28.17;19.63;;;8.20;1.00;;;;;;6303446;28;20253;-54
2022/03/15 01:16:32;;;;;;;26.43;21.63;;;8.30;1.00;;;;;;6283013;28;20539;-55
2022/03/15 01:19:34;;;;;;;24.07;19.47;;;8.20;1.00;;;;;;6298514;28;20239;-54
2022/03/15 01:22:37;;;;;;;27.40;19.43;;;8.20;1.00;;;;;;6298287;28;20228;-54
2022/03/15 01:25:40;;;;;;;26.27;19.83;;;8.10;1.00;;;;;;6299494;28;20237;-55
2022/03/15 01:28:45;;;;;;;25.93;21.03;;;8.10;1.00;;;;;;6294651;28;20243;-53
2022/03/15 01:31:48;;;;;;;27.20;19.40;;;8.20;1.00;;;;;;6300449;28;20305;-55
2022/03/15 01:34:51;;;;;;;27.27;20.40;;;8.00;1.00;;;;;;6296030;28;20535;-54
2022/03/15 01:37:53;;;;;;;27.57;20.53;;;8.00;1.00;;;;;;6298679;28;20270;-55
2022/03/15 01:40:56;;;;;;;25.83;19.73;;;8.00;1.00;;;;;;6302587;28;20298;-54
2022/03/15 01:44:00;;;;;;;29.63;19.93;;;7.90;1.00;;;;;;6290945;28;20292;-53
2022/03/15 01:47:04;;;;;;;23.87;19.37;;;7.90;1.00;;;;;;6283019;28;20288;-54
2022/03/15 01:50:07;;;;;;;27.23;19.23;;;7.80;1.00;;;;;;6305217;28;20326;-55
2022/03/15 01:53:10;;;;;;;27.83;20.17;;;7.80;1.00;;;;;;6302700;28;20379;-55
2022/03/15 01:56:13;;;;;;;23.37;19.27;;;7.70;1.00;;;;;;6303025;28;20264;-54
2022/03/15 01:59:18;;;;;;;26.00;20.03;;;7.70;1.00;;;;;;6300152;28;20295;-54
2022/03/15 02:02:21;;;;;;;26.30;20.33;;;7.80;1.00;;;;;;6297294;28;20309;-53
2022/03/15 02:05:24;;;;;;;24.73;20.20;;;7.80;1.00;;;;;;6299465;28;20965;-56
2022/03/15 02:08:26;;;;;;;25.43;19.90;;;7.90;1.00;;;;;;6296574;28;20566;-55
2022/03/15 02:11:29;;;;;;;24.90;19.47;;;7.90;1.00;;;;;;6296115;28;20371;-53
2022/03/15 02:14:34;;;;;;;27.63;19.97;;;7.90;1.00;;;;;;6295621;28;20563;-54
2022/03/15 02:17:37;;;;;;;28.03;20.00;;;8.00;1.00;;;;;;6300909;28;20608;-54
2022/03/15 02:20:41;;;;;;;27.27;20.03;;;8.00;1.00;;;;;;6284203;28;20487;-55
2022/03/15 02:23:44;;;;;;;29.37;20.53;;;8.00;1.00;;;;;;6302059;28;20413;-55
2022/03/15 02:26:47;;;;;;;30.47;21.33;;;8.00;1.00;;;;;;6281323;28;20648;-52
2022/03/15 02:29:49;;;;;;;28.97;20.23;;;8.00;1.00;;;;;;6290664;28;20371;-54
2022/03/15 02:32:53;;;;;;;26.60;20.50;;;7.90;1.00;;;;;;6289940;28;20329;-56
2022/03/15 02:35:57;;;;;;;27.60;20.60;;;7.90;1.00;;;;;;6307891;28;20331;-54
2022/03/15 02:39:00;;;;;;;24.87;19.80;;;7.90;1.00;;;;;;6298413;28;20320;-54
2022/03/15 02:42:03;;;;;;;27.47;20.50;;;7.90;1.00;;;;;;6292716;28;20289;-54
2022/03/15 02:45:07;;;;;;;32.33;21.70;;;7.90;1.00;;;;;;6306563;28;20309;-54
2022/03/15 02:48:09;;;;;;;28.50;21.07;;;7.80;1.00;;;;;;6292789;28;20320;-54
2022/03/15 02:51:15;;;;;;;27.43;21.60;;;7.80;1.00;;;;;;6305906;28;20688;-53
2022/03/15 02:54:18;;;;;;;30.53;21.93;;;7.80;1.00;;;;;;6307461;28;20697;-53
2022/03/15 02:57:24;;;;;;;32.50;21.53;;;7.80;1.00;;;;;;6295138;28;20230;-54
2022/03/15 03:00:28;;;;;;;34.53;21.67;;;7.80;1.00;;;;;;6299167;28;20247;-54
2022/03/15 03:03:31;;;;;;;31.00;21.80;;;7.70;1.00;;;;;;6289421;28;20743;-56
2022/03/15 03:06:35;;;;;;;27.70;20.60;;;7.80;1.00;;;;;;6287031;28;20323;-53
2022/03/15 03:09:38;;;;;;;28.87;21.13;;;7.80;1.00;;;;;;6295728;28;20526;-53
2022/03/15 03:12:41;;;;;;;32.13;22.50;;;7.70;1.00;;;;;;6305389;28;20328;-55
2022/03/15 03:15:44;;;;;;;27.37;20.47;;;7.70;1.00;;;;;;6298931;28;20764;-54
2022/03/15 03:18:47;;;;;;;31.37;21.73;;;7.70;1.00;;;;;;6300710;28;20709;-54
2022/03/15 03:21:51;;;;;;;33.47;21.47;;;7.80;1.00;;;;;;6305102;28;20315;-53
2022/03/15 03:24:54;;;;;;;29.70;22.00;;;7.70;1.00;;;;;;6291686;28;20504;-54
2022/03/15 03:28:00;;;;;;;28.50;21.67;;;7.70;1.00;;;;;;6301530;28;20229;-54
2022/03/15 03:31:03;;;;;;;27.00;21.00;;;7.60;1.00;;;;;;6306771;28;20283;-55
2022/03/15 03:34:08;;;;;;;31.97;22.57;;;7.50;1.00;;;;;;6293835;28;20229;-53
2022/03/15 03:37:12;;;;;;;34.67;23.83;;;7.50;1.00;;;;;;6296649;28;20243;-54
2022/03/15 03:40:15;;;;;;;37.60;25.17;;;7.50;1.00;;;;;;6303447;28;20235;-54
2022/03/15 03:43:18;;;;;;;30.00;23.47;;;7.50;1.00;;;;;;6283269;28;20318;-54
2022/03/15 03:46:21;;;;;;;32.77;25.17;;;7.60;1.00;;;;;;6308397;28;20752;-54
2022/03/15 03:49:24;;;;;;;35.97;25.23;;;7.40;1.00;;;;;;6305705;28;20251;-55
2022/03/15 03:52:29;;;;;;;32.93;25.47;;;7.30;1.00;;;;;;6301177;28;20479;-55
2022/03/15 03:55:32;;;;;;;32.37;23.97;;;7.30;1.00;;;;;;6301430;28;20241;-54
2022/03/15 03:58:35;;;;;;;34.40;25.40;;;7.20;1.00;;;;;;6304637;28;20316;-54
2022/03/15 04:01:39;;;;;;;32.83;22.90;;;7.40;1.00;;;;;;6306789;28;20551;-54
2022/03/15 04:04:42;;;;;;;35.57;24.13;;;7.30;1.00;;;;;;6298160;28;20512;-54
2022/03/15 04:07:46;;;;;;;32.93;23.97;;;7.20;1.00;;;;;;6304137;28;20793;-53
2022/03/15 04:10:50;;;;;;;31.67;24.00;;;7.10;1.00;;;;;;6303345;28;20300;-54
2022/03/15 04:13:53;;;;;;;33.70;23.70;;;7.20;1.00;;;;;;6304474;28;20709;-55
2022/03/15 04:16:56;;;;;;;31.43;24.30;;;6.90;1.00;;;;;;6298569;28;20232;-54
2022/03/15 04:19:59;;;;;;;37.07;24.83;;;6.90;1.00;;;;;;6306143;28;20235;-55
2022/03/15 04:23:03;;;;;;;31.93;23.30;;;6.80;1.00;;;;;;6298462;28;20232;-53
2022/03/15 04:26:06;;;;;;;33.20;23.60;;;6.70;1.00;;;;;;6303913;28;20559;-54
2022/03/15 04:29:09;;;;;;;32.90;24.40;;;6.60;1.00;;;;;;6307464;28;20763;-53
2022/03/15 04:32:12;;;;;;;30.87;24.40;;;6.80;1.00;;;;;;6288413;28;20502;-53
2022/03/15 04:35:15;;;;;;;34.10;24.43;;;6.60;1.00;;;;;;6287041;28;20299;-54
2022/03/15 04:38:19;;;;;;;30.63;22.83;;;6.70;1.00;;;;;;6295393;28;20225;-53
2022/03/15 04:41:22;;;;;;;32.97;25.20;;;6.40;1.00;;;;;;6300160;28;20238;-53
2022/03/15 04:44:25;;;;;;;34.20;25.50;;;6.50;1.00;;;;;;6293025;28;20374;-54
2022/03/15 04:47:28;;;;;;;32.90;25.17;;;6.40;1.00;;;;;;6299409;28;20260;-54
2022/03/15 04:50:31;;;;;;;38.10;25.97;;;6.60;1.00;;;;;;6293197;28;21163;-54
2022/03/15 04:53:35;;;;;;;35.93;25.73;;;6.70;1.00;;;;;;6301059;28;20358;-54
2022/03/15 04:56:38;;;;;;;33.87;25.60;;;6.40;1.00;;;;;;6308481;28;20620;-54
2022/03/15 04:59:42;;;;;;;39.33;26.07;;;6.30;1.00;;;;;;6299239;28;20290;-53
2022/03/15 05:02:45;;;;;;;34.50;25.03;;;6.60;1.00;;;;;;6301863;28;20280;-53
2022/03/15 05:05:47;;;;;;;36.07;26.97;;;6.40;1.00;;;;;;6298989;28;20275;-55
2022/03/15 05:08:51;;;;;;;39.07;26.40;;;6.30;1.00;;;;;;6297523;28;20229;-54
2022/03/15 05:11:54;;;;;;;41.90;28.00;;;6.10;1.00;;;;;;6283300;28;20237;-54
2022/03/15 05:14:57;;;;;;;43.67;29.00;;;6.00;1.00;;;;;;6298014;28;20290;-53
2022/03/15 05:18:01;;;;;;;42.73;29.67;;;6.10;1.00;;;;;;6303298;28;20270;-54
2022/03/15 05:21:04;;;;;;;44.87;29.37;;;6.40;1.00;;;;;;6302210;28;20232;-53
2022/03/15 05:24:09;;;;;;;45.57;30.30;;;6.20;1.00;;;;;;6307266;28;20366;-56
2022/03/15 05:27:11;;;;;;;48.27;30.00;;;6.00;1.00;;;;;;6303460;28;20301;-55
2022/03/15 05:30:17;;;;;;;47.13;29.33;;;5.80;1.00;;;;;;6301531;28;20501;-54
2022/03/15 05:33:20;;;;;;;42.43;30.60;;;5.80;1.00;;;;;;6296051;28;20232;-53
2022/03/15 05:36:23;;;;;;;42.87;28.50;;;6.00;1.00;;;;;;6290434;28;20371;-54
2022/03/15 05:39:27;;;;;;;54.63;31.20;;;5.80;1.00;;;;;;6300729;28;20242;-56
2022/03/15 05:42:31;;;;;;;46.87;29.63;;;6.20;1.00;;;;;;6302004;28;20670;-56
2022/03/15 05:45:34;;;;;;;45.70;27.97;;;5.90;1.00;;;;;;6302858;28;20236;-54
2022/03/15 05:48:37;;;;;;;43.97;27.60;;;6.00;1.00;;;;;;6304274;28;20237;-54
2022/03/15 05:51:40;;;;;;;90.00;27.90;;;5.90;1.00;;;;;;6303386;28;20751;-54
2022/03/15 05:54:44;;;;;;;63.07;28.70;;;5.90;1.00;;;;;;6308787;28;20812;-54
2022/03/15 05:57:47;;;;;;;53.00;28.90;;;5.90;1.00;;;;;;6304054;28;20336;-54
2022/03/15 06:00:55;;;;;;;50.40;29.43;;;5.70;1.00;;;;;;6303325;28;20315;-53
2022/03/15 06:03:59;;;;;;;49.63;29.90;;;5.80;1.00;;;;;;6294693;28;20243;-55
2022/03/15 06:07:02;;;;;;;42.33;28.97;;;5.80;1.00;;;;;;6298025;28;20717;-54
2022/03/15 06:10:11;;;;;;;43.50;29.37;;;6.10;1.00;;;;;;6288865;28;20272;-54
2022/03/15 06:13:14;;;;;;;41.40;28.30;;;6.00;1.00;;;;;;6298887;28;20494;-54
2022/03/15 06:16:17;;;;;;;40.80;28.50;;;5.90;1.00;;;;;;6299080;28;20547;-54
2022/03/15 06:19:20;;;;;;;41.70;29.40;;;6.00;1.00;;;;;;6294215;28;20236;-55
2022/03/15 06:22:23;;;;;;;49.30;29.20;;;6.20;1.00;;;;;;6290778;28;20302;-54
2022/03/15 06:25:27;;;;;;;37.60;27.33;;;6.20;1.00;;;;;;6300213;28;20953;-54
2022/03/15 06:28:30;;;;;;;42.40;28.13;;;6.20;1.00;;;;;;6299830;28;20236;-54
2022/03/15 06:31:33;;;;;;;39.47;27.87;;;6.50;1.00;;;;;;6298211;28;20524;-55
2022/03/15 06:34:36;;;;;;;38.03;27.47;;;6.40;1.00;;;;;;6298932;28;20317;-55
2022/03/15 06:37:40;;;;;;;35.07;26.07;;;6.20;1.00;;;;;;6296100;28;20359;-53
2022/03/15 06:40:44;;;;;;;36.93;28.13;;;6.50;1.00;;;;;;6300775;28;20289;-54
2022/03/15 06:43:47;;;;;;;35.03;26.70;;;6.40;1.00;;;;;;6298007;28;20314;-55
2022/03/15 06:46:49;;;;;;;36.00;26.47;;;6.80;1.00;;;;;;6293022;28;20232;-55
2022/03/15 06:49:52;;;;;;;32.27;26.07;;;6.80;1.00;;;;;;6302519;28;20229;-53
2022/03/15 06:52:55;;;;;;;35.43;25.67;;;7.00;1.00;;;;;;6300848;28;20346;-55
2022/03/15 06:55:59;;;;;;;35.47;25.73;;;7.00;1.00;;;;;;6300498;28;20736;-55
2022/03/15 06:59:02;;;;;;;37.30;26.77;;;7.10;1.00;;;;;;6306301;28;20284;-54
2022/03/15 07:02:05;;;;;;;33.33;26.67;;;7.10;1.00;;;;;;6301865;28;20236;-55
2022/03/15 07:05:09;;;;;;;32.67;25.40;;;7.10;1.00;;;;;;6295688;28;20497;-55
2022/03/15 07:08:12;;;;;;;35.97;26.40;;;7.20;1.00;;;;;;6308533;28;20832;-54
2022/03/15 07:11:16;;;;;;;37.37;27.23;;;7.10;1.00;;;;;;6306653;28;20346;-54
2022/03/15 07:14:19;;;;;;;36.23;25.47;;;7.30;1.00;;;;;;6303145;28;20319;-57
2022/03/15 07:17:22;;;;;;;33.50;25.43;;;7.40;1.00;;;;;;6304251;28;20736;-55
2022/03/15 07:20:26;;;;;;;33.87;25.57;;;7.40;1.00;;;;;;6306361;28;20325;-54
2022/03/15 07:23:29;;;;;;;34.10;25.13;;;7.60;1.00;;;;;;6306289;28;20412;-55
2022/03/15 07:26:33;;;;;;;30.67;24.47;;;7.60;1.00;;;;;;6310454;28;20260;-54
2022/03/15 07:29:36;;;;;;;31.13;24.33;;;7.70;1.00;;;;;;6306884;28;20495;-54
2022/03/15 07:32:39;;;;;;;28.70;23.27;;;7.80;1.00;;;;;;6303369;28;20357;-55
2022/03/15 07:35:41;;;;;;;37.13;25.17;;;7.90;1.00;;;;;;6310382;28;20243;-54
2022/03/15 07:38:44;;;;;;;32.17;23.80;;;8.00;1.00;;;;;;6313741;28;20309;-54
2022/03/15 07:41:50;;;;;;;33.07;24.90;;;8.00;1.00;;;;;;6306283;28;20590;-54
2022/03/15 07:44:52;;;;;;;33.50;24.50;;;8.10;1.00;;;;;;6309835;28;20740;-54
2022/03/15 07:47:55;;;;;;;32.10;24.00;;;8.10;1.00;;;;;;6298504;28;20241;-53
2022/03/15 07:50:58;;;;;;;34.80;25.13;;;8.20;1.00;;;;;;6303180;28;20785;-55
2022/03/15 07:54:01;;;;;;;32.50;26.40;;;8.20;1.00;;;;;;6309236;28;20254;-55
2022/03/15 07:57:05;;;;;;;34.07;24.90;;;8.30;1.00;;;;;;6308925;28;20319;-54
2022/03/15 08:00:09;;;;;;;33.73;25.83;;;8.40;1.00;;;;;;6294925;28;20328;-55
2022/03/15 08:03:12;;;;;;;37.83;26.60;;;8.50;1.00;;;;;;6307609;28;20682;-55
2022/03/15 08:06:15;;;;;;;36.57;26.03;;;8.60;1.00;;;;;;6308680;28;20237;-53
2022/03/15 08:09:17;;;;;;;36.20;25.87;;;8.70;1.00;;;;;;6302730;28;20220;-54
2022/03/15 08:12:21;;;;;;;36.07;26.13;;;8.70;1.00;;;;;;6305697;28;20385;-55
2022/03/15 08:15:24;;;;;;;39.03;28.20;;;8.80;1.00;;;;;;6304123;28;20422;-55
2022/03/15 08:18:27;;;;;;;44.27;27.63;;;8.80;1.00;;;;;;6309198;28;20224;-55
2022/03/15 08:21:31;;;;;;;39.20;26.63;;;8.70;1.00;;;;;;6301552;28;20257;-55
2022/03/15 08:24:34;;;;;;;37.30;27.20;;;8.80;1.00;;;;;;6302370;28;20368;-56
2022/03/15 08:27:38;;;;;;;36.77;28.07;;;9.00;1.00;;;;;;6306871;28;20240;-55
2022/03/15 08:30:41;;;;;;;38.30;28.37;;;9.10;1.00;;;;;;6305033;28;20245;-55
2022/03/15 08:33:45;;;;;;;31.90;26.43;;;9.30;1.00;;;;;;6303487;28;20244;-55
2022/03/15 08:36:47;;;;;;;34.33;27.47;;;9.50;1.00;;;;;;6308378;28;20312;-55
2022/03/15 08:39:50;;;;;;;41.43;28.77;;;9.70;1.00;;;;;;6307881;28;20541;-55
2022/03/15 08:43:00;;;;;;;39.67;29.37;;;9.60;1.00;;;;;;6301233;28;20228;-56
2022/03/15 08:46:03;;;;;;;41.37;28.93;;;9.70;1.00;;;;;;6308108;28;20486;-54
2022/03/15 08:49:06;;;;;;;39.60;29.00;;;9.80;1.00;;;;;;6309048;28;20256;-54
2022/03/15 08:52:09;;;;;;;36.70;27.90;;;10.00;1.00;;;;;;6297790;28;20316;-54
2022/03/15 08:55:12;;;;;;;41.60;29.30;;;10.20;1.00;;;;;;6308768;28;20252;-55
2022/03/15 08:58:17;;;;;;;40.47;28.77;;;10.40;1.00;;;;;;6300007;28;20711;-53
2022/03/15 09:01:19;;;;;;;35.30;28.40;;;10.40;1.00;;;;;;6303997;28;20374;-54
2022/03/15 09:04:36;;;;;;;40.87;28.13;;;10.50;1.00;;;;;;6300725;28;20736;-53
2022/03/15 09:07:39;;;;;;;38.87;26.87;;;10.50;1.00;;;;;;6295089;28;20239;-53
2022/03/15 09:10:44;;;;;;;38.70;28.10;;;10.60;1.00;;;;;;6302971;28;20894;-54
2022/03/15 09:13:49;;;;;;;38.40;27.30;;;10.70;1.00;;;;;;6278461;28;20315;-58
2022/03/15 09:16:51;;;;;;;37.83;26.53;;;10.90;1.00;;;;;;6293481;28;20233;-55
2022/03/15 09:19:54;;;;;;;32.43;26.60;;;11.00;1.00;;;;;;6301980;28;20252;-54
2022/03/15 09:22:57;;;;;;;38.73;26.70;;;11.10;1.00;;;;;;6305094;28;20247;-55
2022/03/15 09:26:00;;;;;;;37.47;25.90;;;11.30;1.00;;;;;;6298541;28;20315;-55
2022/03/15 09:29:07;;;;;;;37.13;25.73;;;11.40;1.00;;;;;;6307357;28;20426;-55
2022/03/15 09:32:10;;;;;;;39.47;26.97;;;11.60;1.00;;;;;;6296077;28;20335;-55
2022/03/15 09:35:14;;;;;;;32.50;26.47;;;11.70;1.00;;;;;;6298230;28;20317;-54
2022/03/15 09:38:19;;;;;;;43.03;26.67;;;11.80;1.00;;;;;;6298973;28;20236;-56
2022/03/15 09:41:25;;;;;;;30.77;24.57;;;11.90;1.00;;;;;;6305677;28;20232;-54
2022/03/15 09:44:30;;;;;;;36.53;24.50;;;12.00;1.00;;;;;;6300217;28;21712;-55
2022/03/15 09:47:35;;;;;;;31.10;24.60;;;12.10;1.00;;;;;;6296128;28;20236;-54
2022/03/15 09:50:41;;;;;;;39.23;24.93;;;12.30;1.00;;;;;;6294834;28;20260;-55
2022/03/15 09:53:46;;;;;;;29.17;23.13;;;12.30;1.00;;;;;;6306743;28;20257;-54
2022/03/15 09:56:49;;;;;;;31.20;22.63;;;12.30;1.00;;;;;;6298939;28;20303;-57
2022/03/15 09:59:58;;;;;;;26.87;20.87;;;12.50;1.00;;;;;;6300369;28;20290;-54
2022/03/15 10:03:01;;;;;;;28.63;19.30;;;12.70;1.00;;;;;;6291470;28;20494;-54
2022/03/15 10:06:04;;;;;;;30.33;21.17;;;12.70;1.00;;;;;;6287076;28;20237;-55
2022/03/15 10:09:08;;;;;;;30.30;20.23;;;12.60;1.00;;;;;;6302915;28;20315;-54
2022/03/15 10:12:11;;;;;;;23.77;18.67;;;12.70;1.00;;;;;;6297338;28;20339;-55
2022/03/15 10:15:18;;;;;;;26.20;19.87;;;12.50;1.00;;;;;;6305322;28;20243;-55
2022/03/15 10:18:21;;;;;;;26.63;20.30;;;12.60;1.00;;;;;;6292348;28;20301;-55
2022/03/15 10:21:25;;;;;;;26.73;20.33;;;12.70;1.00;;;;;;6290263;28;20539;-55
2022/03/15 10:24:29;;;;;;;25.80;20.77;;;12.80;1.00;;;;;;6288012;28;20241;-54
2022/03/15 10:27:35;;;;;;;26.87;20.57;;;12.90;1.00;;;;;;6302922;28;20724;-55
2022/03/15 10:30:40;;;;;;;29.07;21.93;;;13.10;1.00;;;;;;6295682;28;20237;-54
2022/03/15 10:33:43;;;;;;;28.93;21.03;;;13.00;1.00;;;;;;6304666;28;20381;-54
2022/03/15 10:36:48;;;;;;;26.73;19.70;;;13.30;1.00;;;;;;6298266;28;20592;-54
2022/03/15 10:39:51;;;;;;;25.40;20.40;;;13.20;1.00;;;;;;6305796;28;20240;-55
2022/03/15 10:43:02;;;;;;;26.03;20.37;;;12.90;1.00;;;;;;6291664;28;20302;-54
2022/03/15 10:46:10;;;;;;;23.53;19.70;;;12.90;1.00;;;;;;6294501;28;20241;-54
2022/03/15 10:49:14;;;;;;;29.67;20.30;;;13.20;1.00;;;;;;6309941;28;20557;-53
2022/03/15 10:52:31;;;;;;;25.10;20.60;;;13.50;1.00;;;;;;6296385;28;20763;-55
2022/03/15 10:55:34;;;;;;;25.97;19.17;;;13.60;1.00;;;;;;6298919;28;20232;-55
2022/03/15 10:58:45;;;;;;;25.70;19.13;;;13.50;1.00;;;;;;6316002;28;20693;-54
2022/03/15 11:01:50;;;;;;;23.03;18.57;;;13.50;1.00;;;;;;6297195;28;20287;-55
2022/03/15 11:04:53;;;;;;;26.13;18.83;;;13.40;1.00;;;;;;6311897;28;20240;-55
2022/03/15 11:07:57;;;;;;;24.97;18.90;;;13.20;1.00;;;;;;6312371;28;20546;-54
2022/03/15 11:11:05;;;;;;;27.03;17.50;;;13.20;1.00;;;;;;6309779;28;20763;-54
2022/03/15 11:14:10;;;;;;;26.30;19.07;;;13.20;1.00;;;;;;6296419;28;20289;-54
2022/03/15 11:17:17;;;;;;;24.83;18.17;;;13.30;1.00;;;;;;6306113;28;20333;-54
2022/03/15 11:20:21;;;;;;;19.93;16.93;;;13.30;1.00;;;;;;6301300;28;20221;-55
2022/03/15 11:23:25;;;;;;;27.00;17.30;;;13.40;1.00;;;;;;6302183;28;20309;-55
2022/03/15 11:26:32;;;;;;;24.77;17.70;;;13.50;1.00;;;;;;6304504;28;20313;-54
2022/03/15 11:29:36;;;;;;;19.53;16.13;;;13.50;1.00;;;;;;6310905;28;20323;-56
2022/03/15 11:32:41;;;;;;;19.10;15.87;;;13.50;1.00;;;;;;6310006;28;20316;-54
2022/03/15 11:35:44;;;;;;;25.83;16.53;;;13.50;1.00;;;;;;6315051;28;20334;-54
2022/03/15 11:38:47;;;;;;;19.00;15.57;;;13.50;1.00;;;;;;6311259;28;20722;-55
2022/03/15 11:41:52;;;;;;;20.43;17.00;;;13.60;1.00;;;;;;6314295;28;20407;-55
2022/03/15 11:45:02;;;;;;;21.30;17.27;;;13.70;1.00;;;;;;6300972;28;20802;-55
2022/03/15 11:48:12;;;;;;;24.50;19.33;;;13.80;1.00;;;;;;6303775;28;20311;-55
2022/03/15 11:51:28;;;;;;;28.47;19.60;;;13.80;1.00;;;;;;6300907;28;20237;-54
2022/03/15 11:54:43;;;;;;;25.57;18.37;;;13.70;1.00;;;;;;6303793;28;20256;-55
2022/03/15 11:57:51;;;;;;;30.07;19.33;;;13.70;1.00;;;;;;6304173;28;20796;-55
2022/03/15 12:00:56;;;;;;;25.57;19.43;;;13.50;1.00;;;;;;6295779;28;20727;-54
2022/03/15 12:04:01;;;;;;;26.83;18.63;;;13.40;1.00;;;;;;6292687;28;20319;-58
2022/03/15 12:07:04;;;;;;;26.90;19.00;;;13.60;1.00;;;;;;6295810;28;20705;-55
2022/03/15 12:10:08;;;;;;;24.13;17.97;;;13.60;1.00;;;;;;6305588;28;20302;-55
2022/03/15 12:13:14;;;;;;;21.63;17.47;;;13.80;1.00;;;;;;6297886;28;20331;-55
2022/03/15 12:16:21;;;;;;;23.40;17.73;;;14.00;1.00;;;;;;6303826;28;20799;-55
2022/03/15 12:19:34;;;;;;;26.60;16.70;;;14.00;1.00;;;;;;6301207;28;20236;-56
2022/03/15 12:22:37;;;;;;;22.90;17.47;;;14.10;1.00;;;;;;6303196;28;20261;-55
2022/03/15 12:25:43;;;;;;;24.00;17.43;;;14.00;1.00;;;;;;6298982;28;20395;-55
2022/03/15 12:28:56;;;;;;;20.97;16.53;;;14.10;1.00;;;;;;6302172;28;20320;-55
2022/03/15 12:32:11;;;;;;;20.83;16.43;;;14.00;1.00;;;;;;6301649;28;20252;-54
2022/03/15 12:35:16;;;;;;;22.17;16.10;;;14.10;1.00;;;;;;6296795;28;20782;-56
2022/03/15 12:38:19;;;;;;;20.57;17.07;;;14.20;1.00;;;;;;6290473;28;20279;-54
2022/03/15 12:41:25;;;;;;;20.23;15.70;;;14.10;1.00;;;;;;6305198;28;20272;-55
2022/03/15 12:44:40;;;;;;;21.83;15.73;;;14.20;1.00;;;;;;6302504;28;20650;-54
2022/03/15 12:47:48;;;;;;;22.00;15.63;;;14.30;1.00;;;;;;6302800;28;20240;-54
2022/03/15 12:50:54;;;;;;;22.17;15.53;;;14.40;1.00;;;;;;6304503;28;20861;-55
2022/03/15 12:54:05;;;;;;;22.50;15.87;;;13.90;1.00;;;;;;6305349;28;20725;-53
2022/03/15 12:57:10;;;;;;;23.80;17.10;;;14.10;1.00;;;;;;6297859;28;20348;-54
2022/03/15 13:00:18;;;;;;;24.10;16.80;;;14.20;1.00;;;;;;6301465;28;20240;-55
2022/03/15 13:03:22;;;;;;;20.93;15.13;;;14.10;1.00;;;;;;6296666;28;20224;-56
2022/03/15 13:06:27;;;;;;;24.40;16.43;;;14.20;1.00;;;;;;6289018;28;20736;-56
2022/03/15 13:09:31;;;;;;;18.57;15.30;;;14.20;1.00;;;;;;6304220;28;20836;-61
2022/03/15 13:12:34;;;;;;;19.17;15.30;;;14.10;1.00;;;;;;6302456;28;20308;-55
2022/03/15 13:15:40;;;;;;;24.53;15.23;;;14.20;1.00;;;;;;6302152;28;20739;-54
2022/03/15 13:18:43;;;;;;;19.50;14.33;;;14.10;1.00;;;;;;6303239;28;20236;-55
2022/03/15 13:21:49;;;;;;;16.20;13.90;;;14.10;1.00;;;;;;6297000;28;20785;-54
2022/03/15 13:24:52;;;;;;;16.20;13.67;;;14.10;1.00;;;;;;6296964;28;20244;-54
2022/03/15 13:27:56;;;;;;;18.67;14.43;;;14.00;1.00;;;;;;6303974;28;20258;-55
2022/03/15 13:31:06;;;;;;;15.03;12.50;;;14.00;1.00;;;;;;6291010;28;20370;-54
2022/03/15 13:34:13;;;;;;;17.63;14.50;;;14.00;1.00;;;;;;6297646;28;20248;-54
2022/03/15 13:37:17;;;;;;;22.90;15.33;;;14.10;1.00;;;;;;6306319;28;20256;-56
2022/03/15 13:40:23;;;;;;;15.93;12.27;;;14.20;1.00;;;;;;6306705;28;20264;-54
2022/03/15 13:43:27;;;;;;;12.87;11.57;;;14.20;1.00;;;;;;6305779;28;20455;-54
2022/03/15 13:46:31;;;;;;;14.73;11.03;;;14.10;1.00;;;;;;6303433;28;20731;-53
2022/03/15 13:49:37;;;;;;;17.50;12.90;;;14.10;1.00;;;;;;6302726;28;20248;-54
2022/03/15 13:52:42;;;;;;;18.47;14.03;;;14.00;1.00;;;;;;6297751;28;20344;-56
2022/03/15 13:55:45;;;;;;;19.10;15.57;;;14.10;1.00;;;;;;6303594;28;20260;-55
2022/03/15 13:59:01;;;;;;;20.10;15.83;;;13.90;1.00;;;;;;6297958;28;20233;-54
2022/03/15 14:02:05;;;;;;;20.97;15.17;;;13.80;1.00;;;;;;6298949;28;20233;-55
2022/03/15 14:05:13;;;;;;;19.60;15.17;;;13.80;1.00;;;;;;6305586;28;20386;-54
2022/03/15 14:08:17;;;;;;;22.73;16.50;;;13.60;1.00;;;;;;6300354;28;20232;-55
2022/03/15 14:11:27;;;;;;;18.00;15.13;;;13.60;1.00;;;;;;6302458;28;20228;-54
2022/03/15 14:14:29;;;;;;;18.07;15.17;;;13.70;1.00;;;;;;6306623;28;20293;-53
2022/03/15 14:17:48;;;;;;;18.93;16.00;;;13.80;1.00;;;;;;6304413;28;20315;-55
2022/03/15 14:20:51;;;;;;;18.33;15.30;;;13.70;1.00;;;;;;6297978;28;20239;-55
2022/03/15 14:23:56;;;;;;;18.03;15.23;;;13.60;1.00;;;;;;6306958;28;20298;-54
2022/03/15 14:27:01;;;;;;;25.03;16.80;;;13.50;1.00;;;;;;6305550;28;20385;-55
2022/03/15 14:30:05;;;;;;;17.67;15.17;;;13.50;1.00;;;;;;6286163;28;20379;-54
2022/03/15 14:33:11;;;;;;;18.67;15.03;;;13.50;1.00;;;;;;6300388;28;20877;-55
2022/03/15 14:36:15;;;;;;;19.63;15.50;;;13.50;1.00;;;;;;6296287;28;20237;-54
2022/03/15 14:39:20;;;;;;;19.77;14.80;;;13.40;1.00;;;;;;6300172;28;20320;-54
2022/03/15 14:42:26;;;;;;;22.03;16.57;;;13.40;1.00;;;;;;6305253;28;20819;-54
2022/03/15 14:45:28;;;;;;;16.87;14.83;;;13.40;1.00;;;;;;6298288;28;20312;-54
2022/03/15 14:48:33;;;;;;;20.37;14.40;;;13.20;1.00;;;;;;6304344;28;20289;-59
2022/03/15 14:51:38;;;;;;;18.67;13.80;;;13.20;1.00;;;;;;6302726;28;20244;-55
2022/03/15 14:54:42;;;;;;;17.43;13.37;;;13.10;1.00;;;;;;6304409;28;20236;-54
2022/03/15 14:57:45;;;;;;;21.77;12.90;;;13.10;1.00;;;;;;6306103;28;20320;-54
2022/03/15 15:00:51;;;;;;;13.33;11.83;;;13.10;1.00;;;;;;6291751;28;20825;-54
2022/03/15 15:04:01;;;;;;;12.73;10.83;;;13.10;1.00;;;;;;6303410;28;20243;-55
2022/03/15 15:07:09;;;;;;;12.97;11.57;;;13.00;1.00;;;;;;6301766;28;20228;-55
2022/03/15 15:10:14;;;;;;;15.73;12.90;;;13.10;1.00;;;;;;6295155;28;20316;-56
2022/03/15 15:13:17;;;;;;;22.10;14.27;;;13.00;1.00;;;;;;6294889;28;20354;-55
2022/03/15 15:16:27;;;;;;;16.87;12.77;;;13.00;1.00;;;;;;6296542;28;20247;-55
2022/03/15 15:19:31;;;;;;;15.60;14.00;;;12.90;1.00;;;;;;6280302;28;20225;-55
2022/03/15 15:22:33;;;;;;;18.13;14.23;;;12.90;1.00;;;;;;6296541;28;20398;-55
2022/03/15 15:25:38;;;;;;;20.07;14.33;;;12.80;1.00;;;;;;6290927;28;20340;-55
2022/03/15 15:28:41;;;;;;;17.83;14.57;;;12.80;1.00;;;;;;6302533;28;20245;-55
2022/03/15 15:31:46;;;;;;;16.53;13.97;;;12.80;1.00;;;;;;6293727;28;20236;-54
2022/03/15 15:34:51;;;;;;;16.17;14.47;;;12.70;1.00;;;;;;6302013;28;20272;-55
2022/03/15 15:37:58;;;;;;;16.23;13.93;;;12.60;1.00;;;;;;6301619;28;20317;-55
2022/03/15 15:41:02;;;;;;;15.67;13.77;;;12.50;1.00;;;;;;6297203;28;20293;-54
2022/03/15 15:44:06;;;;;;;18.63;13.67;;;12.50;1.00;;;;;;6297402;28;20848;-54
2022/03/15 15:47:08;;;;;;;16.40;14.70;;;12.60;1.00;;;;;;6301166;28;20236;-54
2022/03/15 15:50:12;;;;;;;19.67;14.50;;;12.30;1.00;;;;;;6305369;28;20986;-54
2022/03/15 15:53:16;;;;;;;17.27;12.93;;;12.30;1.00;;;;;;6291548;28;20758;-56